Marysville, MT (59640)

3:26 PM MDT on October 21, 2017 (GMT -0600)
Solitude Rd | | Change Station
Active Advisory: High Wind Warning

Elev 5180 ft 46.69 °N, 112.23 °W | Updated 4 seconds ago

Mostly Cloudy
Mostly Cloudy
43.2 °F
Feels Like 38 °F
N
10.0
Wind Variable Wind from NNE

Today
High -- | Low -- °F
--% Chance of Precip.
Yesterday
High -- | Low -- °F
Precip. -- in
Pressure 30.00 in
Visibility 10.0 miles
Clouds Few 7000 ft
Windchill 38 °F
Dew Point 19 °F
Humidity 39%
Rainfall 0.00 in
Snow Depth Not available.
7:55 AM 6:30 PM
Waxing Crescent, 4% visible
METAR KHLN 212053Z AUTO 26009KT 10SM FEW070 10/M07 A2994 RMK AO2 SLP158 T01001067 58008
Pressure 30.00 in
Visibility 10.0 miles
Clouds Few 7000 ft
Windchill 38 °F
Dew Point 19 °F
Humidity 39%
Rainfall 0.00 in
Snow Depth Not available.
7:55 AM 6:30 PM
Waxing Crescent, 4% visible
METAR KHLN 212053Z AUTO 26009KT 10SM FEW070 10/M07 A2994 RMK AO2 SLP158 T01001067 58008

Get Your Daily Forecast Email!

Thanks for signing up!

Be on the lookout for a verification email in your inbox.

You'll start receiving severe weather alerts in your inbox..

×

10-Day Weather Forecast

Almanac

Astronomy

Oct. 21, 2017 Rise Set
Actual Time
Civil Twilight
Nautical Twilight
Astronomical Twilight
Moon
Length of Visible Light
Length of Day
Tomorrow will be .
, % of the Moon is Illuminated

Today's Extremes

State Highs State Lows

Community

WunderPhotos

Category 6

Welcome to Category 6. This is the collective home for Weather Underground's featured writeups by Dr. Jeff Masters (right), Bob Henson (left), Chris Burt, and other regular contributors.

Nearby

Air Quality

  Air Quality AQ Index Pollutant
Not available.

Snow Depth

Station Depth Elevation

Earthquake Activity

City Distance Mag. Time & Date
Minimum magnitude displayed is 2.5.

Coastal Water Temperatures

Place Temperature

Stations

Nearby Weather Stations

Station Location Temp. Windchill Dew Point Humidity Wind Precip. Elev Updated Type
                   

Watches & Warnings

High Wind Warning
Issued: 2:24 PM MDT Oct. 21, 2017 – National Weather Service

... High Wind Warning remains in effect
from 6 am to 10 PM MDT Sunday...

* winds: southwest 35 to 45 mph... with gusts near 65 mph.
Isolated gusts up to 75 mph are possible.

* Timing: Sunday morning through Sunday evening.

* Impacts: strong winds may blow down limbs, trees, and power
lines. Scattered power outages are expected. Travel will be
difficult, especially for high profile vehicles. Expect strong
cross winds on north and south orientated roads. Hunters and
those recreating near trees, especially near recent burn scars,
should be aware and prepared for the possibility of falling
trees.

Precautionary/preparedness actions...

A High Wind Warning means a hazardous high wind event is expected
or occurring. Sustained wind speeds of at least 40 mph, or gusts
of 58 mph or more, can lead to property damage.